Time;durP1;ratioP1;P1;durP2;ratioP2;P2;SDS_P1;SDS_P2;PMS_P1;PMS_P2;Temp;Humidity;BMP_temperature;BMP_pressure;BME280_temperature;BME280_humidity;BME280_pressure;Samples;Min_cycle;Max_cycle;Signal;HPM_P1;HPM_P2
2021/11/18 00:00:51;;;;;;;33.65;17.35;;;8.10;99.90;;;;;;2072100;28;20017;-72
2021/11/18 00:01:53;;;;;;;29.27;15.90;;;8.10;99.90;;;;;;2065070;28;20026;-72
2021/11/18 00:02:54;;;;;;;33.22;16.65;;;8.10;99.90;;;;;;2071290;28;20018;-72
2021/11/18 00:03:56;;;;;;;33.85;16.98;;;8.10;99.90;;;;;;2072094;28;20084;-73
2021/11/18 00:04:57;;;;;;;34.85;16.13;;;8.10;99.90;;;;;;2072238;28;20474;-73
2021/11/18 00:05:58;;;;;;;33.25;17.40;;;8.10;99.90;;;;;;2070866;28;20374;-72
2021/11/18 00:07:00;;;;;;;34.78;17.10;;;8.10;99.90;;;;;;2070416;28;20371;-72
2021/11/18 00:08:01;;;;;;;35.33;17.58;;;8.10;99.90;;;;;;2071204;28;20045;-72
2021/11/18 00:09:03;;;;;;;36.72;17.17;;;8.10;99.90;;;;;;2068417;28;20034;-72
2021/11/18 00:10:04;;;;;;;28.27;16.73;;;8.10;99.90;;;;;;2072443;28;20041;-72
2021/11/18 00:11:09;;;;;;;34.75;16.45;;;8.10;99.90;;;;;;2071896;28;20109;-72
2021/11/18 00:12:10;;;;;;;36.22;17.70;;;8.10;99.90;;;;;;2071581;28;20501;-72
2021/11/18 00:13:14;;;;;;;29.50;16.50;;;8.10;99.90;;;;;;2071916;28;20021;-73
2021/11/18 00:14:15;;;;;;;35.58;15.63;;;8.10;99.90;;;;;;2071548;28;20475;-72
2021/11/18 00:15:16;;;;;;;39.35;16.30;;;8.10;99.90;;;;;;2067990;28;20080;-72
2021/11/18 00:16:17;;;;;;;35.67;16.52;;;8.10;99.90;;;;;;2066609;28;20072;-72
2021/11/18 00:17:18;;;;;;;32.25;16.70;;;8.10;99.90;;;;;;2071768;28;20029;-73
2021/11/18 00:18:21;;;;;;;33.85;16.55;;;8.10;99.90;;;;;;2071462;28;20457;-73
2021/11/18 00:19:22;;;;;;;28.55;15.80;;;8.10;99.90;;;;;;2071590;28;20141;-73
2021/11/18 00:20:22;;;;;;;32.05;16.02;;;8.20;99.90;;;;;;2069341;28;20084;-72
2021/11/18 00:21:29;;;;;;;39.80;16.52;;;8.20;99.90;;;;;;2071562;28;20053;-72
2021/11/18 00:22:30;;;;;;;30.95;15.05;;;8.20;99.90;;;;;;2065962;28;20050;-73
2021/11/18 00:23:37;;;;;;;28.95;15.75;;;8.20;99.90;;;;;;2071844;28;20029;-73
2021/11/18 00:24:37;;;;;;;31.95;15.35;;;8.20;99.90;;;;;;2072110;28;20030;-72
2021/11/18 00:25:38;;;;;;;28.20;15.25;;;8.10;99.90;;;;;;2070444;28;20018;-72
2021/11/18 00:26:40;;;;;;;32.33;14.95;;;8.20;99.90;;;;;;2068266;28;20538;-73
2021/11/18 00:27:41;;;;;;;27.05;15.10;;;8.20;99.90;;;;;;2067593;28;20034;-73
2021/11/18 00:28:42;;;;;;;30.92;15.77;;;8.20;99.90;;;;;;2070570;28;20034;-72
2021/11/18 00:29:43;;;;;;;32.25;14.85;;;8.20;99.90;;;;;;2071853;28;20029;-73
2021/11/18 00:30:44;;;;;;;29.23;15.07;;;8.20;99.90;;;;;;2065888;28;20022;-73
2021/11/18 00:31:44;;;;;;;24.92;14.68;;;8.20;99.90;;;;;;2068841;28;20025;-73
2021/11/18 00:32:46;;;;;;;39.72;16.25;;;8.20;99.90;;;;;;2072114;28;20025;-73
2021/11/18 00:33:47;;;;;;;28.08;15.10;;;8.20;99.90;;;;;;2068682;28;20030;-73
2021/11/18 00:34:47;;;;;;;28.67;14.98;;;8.20;99.90;;;;;;2067071;28;20029;-73
2021/11/18 00:35:48;;;;;;;30.80;14.35;;;8.20;99.90;;;;;;2071794;28;20059;-72
2021/11/18 00:36:49;;;;;;;32.00;14.25;;;8.20;99.90;;;;;;2071387;28;20018;-72
2021/11/18 00:37:50;;;;;;;35.95;15.07;;;8.20;99.90;;;;;;2070790;28;20045;-72
2021/11/18 00:38:51;;;;;;;33.13;15.27;;;8.20;99.90;;;;;;2063503;28;20037;-72
2021/11/18 00:39:52;;;;;;;35.05;15.00;;;8.20;99.90;;;;;;2071053;28;20409;-73
2021/11/18 00:40:54;;;;;;;30.90;15.07;;;8.20;99.90;;;;;;2072162;28;20049;-73
2021/11/18 00:41:54;;;;;;;28.25;15.30;;;8.20;99.90;;;;;;2071185;28;20490;-72
2021/11/18 00:42:55;;;;;;;31.08;14.80;;;8.20;99.90;;;;;;2071807;28;20458;-73
2021/11/18 00:43:56;;;;;;;26.77;14.27;;;8.20;99.90;;;;;;2070572;28;20118;-72
2021/11/18 00:44:57;;;;;;;31.35;14.98;;;8.20;99.90;;;;;;2070139;28;20049;-72
2021/11/18 00:45:58;;;;;;;23.27;13.55;;;8.20;99.90;;;;;;2067656;28;20113;-72
2021/11/18 00:46:59;;;;;;;29.15;14.50;;;8.20;99.90;;;;;;2071908;28;20409;-72
2021/11/18 00:48:00;;;;;;;31.77;13.35;;;8.20;99.90;;;;;;2071713;28;20026;-72
2021/11/18 00:49:02;;;;;;;27.15;14.10;;;8.20;99.90;;;;;;2071602;28;20921;-72
2021/11/18 00:50:05;;;;;;;28.63;14.68;;;8.20;99.90;;;;;;2071603;28;20431;-72
2021/11/18 00:51:09;;;;;;;28.10;15.15;;;8.20;99.90;;;;;;2071918;28;20075;-72
2021/11/18 00:52:09;;;;;;;24.10;13.70;;;8.20;99.90;;;;;;2071996;28;20467;-72
2021/11/18 00:53:10;;;;;;;27.92;14.43;;;8.20;99.90;;;;;;2071312;28;21119;-72
2021/11/18 00:54:11;;;;;;;30.58;14.65;;;8.20;99.90;;;;;;2067589;28;20097;-72
2021/11/18 00:55:13;;;;;;;28.67;13.27;;;8.20;99.90;;;;;;2071458;28;20029;-72
2021/11/18 00:56:14;;;;;;;21.60;12.90;;;8.20;99.90;;;;;;2071790;28;20030;-73
2021/11/18 00:57:16;;;;;;;26.20;13.98;;;8.20;99.90;;;;;;2071729;28;20028;-72
2021/11/18 00:58:17;;;;;;;26.55;14.15;;;8.20;99.90;;;;;;2071225;28;20022;-72
2021/11/18 00:59:17;;;;;;;28.83;13.57;;;8.20;99.90;;;;;;2070892;28;20026;-72
2021/11/18 01:00:24;;;;;;;30.05;13.70;;;8.20;99.90;;;;;;2071622;28;20128;-73
2021/11/18 01:01:31;;;;;;;27.48;13.25;;;8.20;99.90;;;;;;2071145;28;20017;-72
2021/11/18 01:02:31;;;;;;;27.52;12.98;;;8.20;99.90;;;;;;2068730;28;20022;-72
2021/11/18 01:03:32;;;;;;;25.60;13.80;;;8.20;99.90;;;;;;2071167;28;20054;-72
2021/11/18 01:04:33;;;;;;;25.08;13.77;;;8.20;99.90;;;;;;2071613;28;20037;-72
2021/11/18 01:05:36;;;;;;;25.83;14.73;;;8.20;99.90;;;;;;2071375;28;20026;-72
2021/11/18 01:06:37;;;;;;;28.17;13.75;;;8.20;99.90;;;;;;2071705;28;20020;-72
2021/11/18 01:07:38;;;;;;;29.40;13.60;;;8.20;99.90;;;;;;2068174;28;20037;-72
2021/11/18 01:08:39;;;;;;;25.48;13.32;;;8.20;99.90;;;;;;2069795;28;20386;-72
2021/11/18 01:09:39;;;;;;;33.25;14.82;;;8.20;99.90;;;;;;2075613;28;20040;-72
2021/11/18 01:10:45;;;;;;;38.83;14.90;;;8.20;99.90;;;;;;2071628;28;20121;-74
2021/11/18 01:11:46;;;;;;;32.72;14.27;;;8.20;99.90;;;;;;2071458;28;20140;-72
2021/11/18 01:12:46;;;;;;;22.67;12.75;;;8.10;99.90;;;;;;2071345;28;20287;-72
2021/11/18 01:13:48;;;;;;;26.02;13.75;;;8.10;99.90;;;;;;2069955;28;20057;-72
2021/11/18 01:14:49;;;;;;;25.23;12.77;;;8.20;99.90;;;;;;2070846;28;20029;-72
2021/11/18 01:15:51;;;;;;;26.50;12.80;;;8.10;99.90;;;;;;2066405;28;20014;-72
2021/11/18 01:16:52;;;;;;;31.00;14.93;;;8.20;99.90;;;;;;2071922;28;20100;-72
2021/11/18 01:17:54;;;;;;;29.60;14.00;;;8.10;99.90;;;;;;2071484;28;20541;-72
2021/11/18 01:18:56;;;;;;;29.38;13.73;;;8.10;99.90;;;;;;2070693;28;20057;-73
2021/11/18 01:19:56;;;;;;;28.98;13.73;;;8.10;99.90;;;;;;2071671;28;20022;-73
2021/11/18 01:20:57;;;;;;;27.45;14.13;;;8.10;99.90;;;;;;2071800;28;20030;-72
2021/11/18 01:21:58;;;;;;;26.15;13.52;;;8.10;99.90;;;;;;2071715;28;20037;-72
2021/11/18 01:23:01;;;;;;;30.08;13.48;;;8.10;99.90;;;;;;2071420;28;20061;-73
2021/11/18 01:24:04;;;;;;;29.38;13.48;;;8.10;99.90;;;;;;2070603;28;20546;-73
2021/11/18 01:25:05;;;;;;;24.63;13.77;;;8.10;99.90;;;;;;2071518;28;20037;-73
2021/11/18 01:26:08;;;;;;;25.77;13.90;;;8.10;99.90;;;;;;2071572;28;20085;-73
2021/11/18 01:27:09;;;;;;;25.55;14.13;;;8.10;99.90;;;;;;2071676;28;20025;-72
2021/11/18 01:28:11;;;;;;;27.45;14.50;;;8.10;99.90;;;;;;2071106;28;20379;-73
2021/11/18 01:29:11;;;;;;;31.42;15.23;;;8.10;99.90;;;;;;2071507;28;20030;-72
2021/11/18 01:30:18;;;;;;;30.77;16.25;;;8.10;99.90;;;;;;2071118;28;20486;-72
2021/11/18 01:31:20;;;;;;;27.33;15.25;;;8.10;99.90;;;;;;2071730;28;20045;-72
2021/11/18 01:32:20;;;;;;;32.17;15.25;;;8.10;99.90;;;;;;2070859;28;20037;-73
2021/11/18 01:33:22;;;;;;;32.55;15.30;;;8.10;99.90;;;;;;2070737;28;20462;-72
2021/11/18 01:34:23;;;;;;;28.23;15.50;;;8.10;99.90;;;;;;2064763;28;20368;-72
2021/11/18 01:35:24;;;;;;;29.77;14.93;;;8.10;99.90;;;;;;2071789;28;20056;-72
2021/11/18 01:36:25;;;;;;;27.45;14.73;;;8.10;99.90;;;;;;2070779;28;20026;-73
2021/11/18 01:37:25;;;;;;;34.78;16.20;;;8.10;99.90;;;;;;2068929;28;20018;-73
2021/11/18 01:38:27;;;;;;;30.67;16.20;;;8.10;99.90;;;;;;2070627;28;20038;-73
2021/11/18 01:39:27;;;;;;;26.60;14.80;;;8.10;99.90;;;;;;2071538;28;20539;-72
2021/11/18 01:40:32;;;;;;;31.38;15.27;;;8.10;99.90;;;;;;2071026;28;20505;-72
2021/11/18 01:41:33;;;;;;;31.38;15.60;;;8.10;99.90;;;;;;2071508;28;20018;-73
2021/11/18 01:42:34;;;;;;;34.35;15.65;;;8.10;99.90;;;;;;2071118;28;20113;-73
2021/11/18 01:43:42;;;;;;;26.85;14.65;;;8.10;99.90;;;;;;2071224;28;20033;-72
2021/11/18 01:44:46;;;;;;;28.02;14.05;;;8.10;99.90;;;;;;2068496;28;20026;-72
2021/11/18 01:45:47;;;;;;;30.30;15.60;;;8.00;99.90;;;;;;2067697;28;20037;-72
2021/11/18 01:46:47;;;;;;;32.60;15.93;;;8.00;99.90;;;;;;2071284;28;20034;-73
2021/11/18 01:47:48;;;;;;;33.50;15.07;;;8.00;99.90;;;;;;2071008;28;20057;-72
2021/11/18 01:48:51;;;;;;;29.38;14.48;;;8.00;99.90;;;;;;2066826;28;20434;-72
2021/11/18 01:49:53;;;;;;;31.90;15.75;;;8.00;99.90;;;;;;2070388;28;20488;-73
2021/11/18 01:50:55;;;;;;;32.70;15.88;;;8.00;99.90;;;;;;2070445;28;20033;-73
2021/11/18 01:51:58;;;;;;;33.70;16.23;;;8.00;99.90;;;;;;2070995;28;20609;-73
2021/11/18 01:53:00;;;;;;;32.30;16.38;;;8.00;99.90;;;;;;2069494;28;20385;-73
2021/11/18 01:54:03;;;;;;;34.78;16.20;;;8.00;99.90;;;;;;2068009;28;20018;-72
2021/11/18 01:55:04;;;;;;;29.10;16.25;;;8.00;99.90;;;;;;2071366;28;20045;-72
2021/11/18 01:56:09;;;;;;;31.95;16.40;;;8.00;99.90;;;;;;2071537;28;20061;-73
2021/11/18 01:57:13;;;;;;;32.10;16.75;;;8.00;99.90;;;;;;2070819;28;20037;-73
2021/11/18 01:58:17;;;;;;;25.52;16.02;;;8.00;99.90;;;;;;2069459;28;20026;-73
2021/11/18 01:59:23;;;;;;;32.55;15.90;;;8.00;99.90;;;;;;2069130;28;20025;-73
2021/11/18 02:00:29;;;;;;;27.88;16.42;;;8.00;99.90;;;;;;2071220;28;20037;-73
2021/11/18 02:01:29;;;;;;;27.80;16.05;;;8.00;99.90;;;;;;2071467;28;20065;-72
2021/11/18 02:02:30;;;;;;;30.85;16.80;;;8.00;99.90;;;;;;2071411;28;20030;-72
2021/11/18 02:03:31;;;;;;;31.25;16.45;;;8.00;99.90;;;;;;2069717;28;20390;-72
2021/11/18 02:04:32;;;;;;;26.67;16.25;;;8.00;99.90;;;;;;2067031;28;20033;-73
2021/11/18 02:05:35;;;;;;;31.70;16.88;;;8.00;99.90;;;;;;2066616;28;20432;-73
2021/11/18 02:06:41;;;;;;;31.92;16.30;;;8.00;99.90;;;;;;2071304;28;20029;-73
2021/11/18 02:07:44;;;;;;;30.80;17.23;;;8.00;99.90;;;;;;2071005;28;20385;-72
2021/11/18 02:08:44;;;;;;;37.40;17.75;;;8.00;99.90;;;;;;2070494;28;20108;-72
2021/11/18 02:09:47;;;;;;;31.27;16.33;;;8.00;99.90;;;;;;2071482;28;20026;-73
2021/11/18 02:10:51;;;;;;;31.67;17.55;;;8.00;99.90;;;;;;2071396;28;20037;-72
2021/11/18 02:12:10;;;;;;;32.17;17.70;;;8.00;99.90;;;;;;2064446;28;20876;-73
2021/11/18 02:13:14;;;;;;;33.05;17.05;;;8.00;99.90;;;;;;2069926;28;20797;-73
2021/11/18 02:14:17;;;;;;;37.50;17.83;;;8.00;99.90;;;;;;2069355;28;20099;-73
2021/11/18 02:15:37;;;;;;;28.05;16.58;;;7.90;99.90;;;;;;2066453;28;20022;-73
2021/11/18 02:16:39;;;;;;;32.00;17.52;;;8.00;99.90;;;;;;2068454;28;20030;-73
2021/11/18 02:17:40;;;;;;;33.22;17.30;;;8.00;99.90;;;;;;2071356;28;20026;-73
2021/11/18 02:18:40;;;;;;;31.20;16.75;;;8.00;99.90;;;;;;2070350;28;20014;-72
2021/11/18 02:19:47;;;;;;;34.83;17.55;;;7.90;99.90;;;;;;2066534;28;20030;-73
2021/11/18 02:20:50;;;;;;;39.05;18.27;;;7.90;99.90;;;;;;2071552;28;20060;-73
2021/11/18 02:21:53;;;;;;;26.02;17.52;;;7.90;99.90;;;;;;2070122;28;20112;-73
2021/11/18 02:22:54;;;;;;;29.92;16.83;;;7.90;99.90;;;;;;2070948;28;20080;-73
2021/11/18 02:24:00;;;;;;;33.92;18.40;;;7.90;99.90;;;;;;2071126;28;20117;-73
2021/11/18 02:25:09;;;;;;;33.00;17.55;;;7.90;99.90;;;;;;2069850;28;20355;-72
2021/11/18 02:26:09;;;;;;;39.03;18.02;;;7.90;99.90;;;;;;2066431;28;20068;-72
2021/11/18 02:27:14;;;;;;;34.53;16.88;;;7.90;99.90;;;;;;2071101;28;20030;-72
2021/11/18 02:28:16;;;;;;;37.75;18.05;;;7.90;99.90;;;;;;2069678;28;20029;-73
2021/11/18 02:29:19;;;;;;;33.88;17.10;;;7.90;99.90;;;;;;2059823;28;20027;-72
2021/11/18 02:30:21;;;;;;;28.65;16.77;;;7.90;99.90;;;;;;2068487;28;20510;-72
2021/11/18 02:31:34;;;;;;;32.45;17.98;;;7.90;99.90;;;;;;2071320;28;20092;-73
2021/11/18 02:32:37;;;;;;;32.08;16.90;;;7.90;99.90;;;;;;2069723;28;20022;-72
2021/11/18 02:33:38;;;;;;;31.08;16.60;;;7.90;99.90;;;;;;2073365;28;20080;-72
2021/11/18 02:34:44;;;;;;;36.30;17.52;;;7.90;99.90;;;;;;2071485;28;20120;-72
2021/11/18 02:35:47;;;;;;;32.47;18.67;;;7.90;99.90;;;;;;2071348;28;20052;-72
2021/11/18 02:36:48;;;;;;;33.25;17.23;;;7.90;99.90;;;;;;2071094;28;20026;-73
2021/11/18 02:37:52;;;;;;;33.22;17.48;;;7.90;99.90;;;;;;2066905;28;20025;-73
2021/11/18 02:38:53;;;;;;;31.38;17.33;;;7.90;99.90;;;;;;2068814;28;20538;-72
2021/11/18 02:39:55;;;;;;;32.17;17.35;;;7.90;99.90;;;;;;2069814;28;20029;-73
2021/11/18 02:40:55;;;;;;;35.72;17.88;;;7.90;99.90;;;;;;2070333;28;20103;-72
2021/11/18 02:41:56;;;;;;;37.10;18.02;;;7.90;99.90;;;;;;2070481;28;20026;-73
2021/11/18 02:42:59;;;;;;;35.45;18.25;;;7.90;99.90;;;;;;2066095;28;20037;-72
2021/11/18 02:43:59;;;;;;;31.23;18.15;;;7.90;99.90;;;;;;2069478;28;20029;-73
2021/11/18 02:45:00;;;;;;;35.40;17.42;;;7.90;99.90;;;;;;2064646;28;20062;-72
2021/11/18 02:46:01;;;;;;;40.72;18.20;;;8.00;99.90;;;;;;2065403;28;20034;-73
2021/11/18 02:47:06;;;;;;;35.55;17.13;;;7.90;99.90;;;;;;2063010;28;20109;-73
2021/11/18 02:48:06;;;;;;;31.98;16.98;;;7.90;99.90;;;;;;2067697;28;20029;-73
2021/11/18 02:49:07;;;;;;;37.95;17.48;;;7.90;99.90;;;;;;2066281;28;20066;-72
2021/11/18 02:50:13;;;;;;;33.28;17.90;;;7.90;99.90;;;;;;2071055;28;20101;-73
2021/11/18 02:51:17;;;;;;;32.45;16.60;;;7.90;99.90;;;;;;2071465;28;20038;-73
2021/11/18 02:52:28;;;;;;;36.28;18.33;;;7.90;99.90;;;;;;2072467;28;20022;-73
2021/11/18 02:53:32;;;;;;;33.03;18.27;;;7.90;99.90;;;;;;2071326;28;20022;-73
2021/11/18 02:54:32;;;;;;;29.02;16.40;;;7.90;99.90;;;;;;2071828;28;20036;-73
2021/11/18 02:55:38;;;;;;;30.10;17.55;;;7.90;99.90;;;;;;2072940;28;20028;-72
2021/11/18 02:56:38;;;;;;;32.10;17.02;;;7.90;99.90;;;;;;2072628;28;20026;-73
2021/11/18 02:57:39;;;;;;;32.30;17.35;;;7.90;99.90;;;;;;2072008;28;20032;-73
2021/11/18 02:58:40;;;;;;;29.42;17.17;;;7.90;99.90;;;;;;2070834;28;20034;-73
2021/11/18 02:59:40;;;;;;;39.10;18.45;;;7.90;99.90;;;;;;2072676;28;20022;-72
2021/11/18 03:00:56;;;;;;;35.00;18.30;;;7.90;99.90;;;;;;2072629;28;20037;-72
2021/11/18 03:01:57;;;;;;;35.13;18.77;;;7.90;99.90;;;;;;2072337;28;20514;-73
2021/11/18 03:02:58;;;;;;;33.97;17.85;;;7.90;99.90;;;;;;2071710;28;20389;-73
2021/11/18 03:03:59;;;;;;;32.83;17.38;;;7.90;99.90;;;;;;2071610;28;20410;-72
2021/11/18 03:05:00;;;;;;;33.05;17.67;;;7.90;99.90;;;;;;2071634;28;20545;-73
2021/11/18 03:06:04;;;;;;;33.78;17.67;;;7.90;99.90;;;;;;2071929;28;20050;-73
2021/11/18 03:07:04;;;;;;;37.25;18.85;;;7.90;99.90;;;;;;2066472;28;20691;-73
2021/11/18 03:08:05;;;;;;;28.95;18.35;;;7.90;99.90;;;;;;2072041;28;20022;-73
2021/11/18 03:09:06;;;;;;;32.00;17.83;;;7.80;99.90;;;;;;2072666;28;20037;-72
2021/11/18 03:10:09;;;;;;;31.85;17.65;;;7.80;99.90;;;;;;2072678;28;20100;-73
2021/11/18 03:11:11;;;;;;;32.35;17.65;;;7.80;99.90;;;;;;2072578;28;20030;-73
2021/11/18 03:12:11;;;;;;;33.88;17.35;;;7.80;99.90;;;;;;2071971;28;20025;-73
2021/11/18 03:13:12;;;;;;;34.25;18.17;;;7.80;99.90;;;;;;2071364;28;20018;-73
2021/11/18 03:14:12;;;;;;;35.80;17.27;;;7.80;99.90;;;;;;2069685;28;20122;-73
2021/11/18 03:15:14;;;;;;;32.72;17.48;;;7.80;99.90;;;;;;2067414;28;20101;-73
2021/11/18 03:16:16;;;;;;;31.05;17.88;;;7.80;99.90;;;;;;2072046;28;20414;-73
2021/11/18 03:17:17;;;;;;;37.45;18.23;;;7.80;99.90;;;;;;2072427;28;20034;-73
2021/11/18 03:18:18;;;;;;;37.55;17.88;;;7.80;99.90;;;;;;2071992;28;20405;-73
2021/11/18 03:19:19;;;;;;;32.05;17.92;;;7.80;99.90;;;;;;2071924;28;20375;-73
2021/11/18 03:20:21;;;;;;;39.78;18.38;;;7.80;99.90;;;;;;2072464;28;20539;-72
2021/11/18 03:21:26;;;;;;;34.28;17.63;;;7.80;99.90;;;;;;2072029;28;20030;-73
2021/11/18 03:22:27;;;;;;;23.73;16.70;;;7.80;99.90;;;;;;2064614;28;20054;-73
2021/11/18 03:23:28;;;;;;;33.53;17.27;;;7.80;99.90;;;;;;2067102;28;20535;-73
2021/11/18 03:24:29;;;;;;;35.53;19.17;;;7.70;99.90;;;;;;2066149;28;20097;-73
2021/11/18 03:25:32;;;;;;;35.80;17.95;;;7.70;99.90;;;;;;2071235;28;20037;-73
2021/11/18 03:26:33;;;;;;;33.35;17.65;;;7.80;99.90;;;;;;2072282;28;20026;-73
2021/11/18 03:27:35;;;;;;;34.05;16.45;;;7.70;99.90;;;;;;2071670;28;20022;-73
2021/11/18 03:28:36;;;;;;;34.75;18.40;;;7.80;99.90;;;;;;2070486;28;20018;-73
2021/11/18 03:29:36;;;;;;;36.58;17.65;;;7.70;99.90;;;;;;2069076;28;20030;-73
2021/11/18 03:30:41;;;;;;;34.28;17.55;;;7.70;99.90;;;;;;2072114;28;20018;-73
2021/11/18 03:31:42;;;;;;;27.90;17.25;;;7.70;99.90;;;;;;2071558;28;20052;-73
2021/11/18 03:32:43;;;;;;;36.35;16.92;;;7.70;99.90;;;;;;2071775;28;20061;-73
2021/11/18 03:33:50;;;;;;;26.38;16.50;;;7.70;99.90;;;;;;2068962;28;20033;-73
2021/11/18 03:34:50;;;;;;;32.42;17.65;;;7.70;99.90;;;;;;2067873;28;20017;-73
2021/11/18 03:35:53;;;;;;;31.50;17.35;;;7.70;99.90;;;;;;2072312;28;20104;-73
2021/11/18 03:36:53;;;;;;;33.95;16.95;;;7.70;99.90;;;;;;2072374;28;20037;-73
2021/11/18 03:37:55;;;;;;;35.95;17.55;;;7.70;99.90;;;;;;2072442;28;20022;-73
2021/11/18 03:38:57;;;;;;;35.10;19.00;;;7.70;99.90;;;;;;2067015;28;20034;-73
2021/11/18 03:39:58;;;;;;;36.08;18.45;;;7.70;99.90;;;;;;2070427;28;20080;-73
2021/11/18 03:41:03;;;;;;;31.45;17.77;;;7.70;99.90;;;;;;2071725;28;20071;-73
2021/11/18 03:42:07;;;;;;;34.90;17.77;;;7.70;99.90;;;;;;2072655;28;20022;-72
2021/11/18 03:43:09;;;;;;;39.88;18.85;;;7.70;99.90;;;;;;2071939;28;20129;-73
2021/11/18 03:44:12;;;;;;;30.33;18.02;;;7.70;99.90;;;;;;2070683;28;20985;-73
2021/11/18 03:45:14;;;;;;;34.95;18.23;;;7.70;99.90;;;;;;2071182;28;20080;-73
2021/11/18 03:46:17;;;;;;;36.05;18.05;;;7.70;99.90;;;;;;2071243;28;20026;-73
2021/11/18 03:47:18;;;;;;;34.38;18.02;;;7.70;99.90;;;;;;2072747;28;20117;-73
2021/11/18 03:48:19;;;;;;;36.03;17.73;;;7.70;99.90;;;;;;2071646;28;20026;-73
2021/11/18 03:49:23;;;;;;;37.20;18.45;;;7.70;99.90;;;;;;2071619;28;20433;-73
2021/11/18 03:50:24;;;;;;;41.00;17.00;;;7.70;99.90;;;;;;2072224;28;20088;-73
2021/11/18 03:51:28;;;;;;;39.00;18.65;;;7.70;99.90;;;;;;2072239;28;20091;-73
2021/11/18 03:52:28;;;;;;;38.35;18.75;;;7.70;99.90;;;;;;2072527;28;20025;-73
2021/11/18 03:53:33;;;;;;;34.47;17.55;;;7.70;99.90;;;;;;2070949;28;20040;-73
2021/11/18 03:54:36;;;;;;;36.42;17.73;;;7.70;99.90;;;;;;2057568;28;20030;-73
2021/11/18 03:55:36;;;;;;;38.80;18.05;;;7.70;99.90;;;;;;2070552;28;20123;-73
2021/11/18 03:56:40;;;;;;;35.08;18.10;;;7.70;99.90;;;;;;2064447;28;20026;-73
2021/11/18 03:57:41;;;;;;;39.28;18.30;;;7.70;99.90;;;;;;2069444;28;20022;-73
2021/11/18 03:58:42;;;;;;;33.20;18.33;;;7.70;99.90;;;;;;2071431;28;20022;-73
2021/11/18 03:59:46;;;;;;;35.72;17.60;;;7.70;99.90;;;;;;2071270;28;20033;-73
2021/11/18 04:00:46;;;;;;;32.63;17.38;;;7.70;99.90;;;;;;2071639;28;20569;-73
2021/11/18 04:01:48;;;;;;;37.35;18.52;;;7.70;99.90;;;;;;2071673;28;20383;-73
2021/11/18 04:02:50;;;;;;;35.75;17.45;;;7.70;99.90;;;;;;2071074;28;20125;-73
2021/11/18 04:03:54;;;;;;;33.78;19.08;;;7.70;99.90;;;;;;2060964;28;20031;-73
2021/11/18 04:05:00;;;;;;;36.03;17.77;;;7.70;99.90;;;;;;2063858;28;20019;-73
2021/11/18 04:06:03;;;;;;;42.45;18.45;;;7.70;99.90;;;;;;2070709;28;20481;-74
2021/11/18 04:07:05;;;;;;;38.67;19.25;;;7.70;99.90;;;;;;2072253;28;20030;-73
2021/11/18 04:08:07;;;;;;;39.70;18.55;;;7.70;99.90;;;;;;2071957;28;20029;-73
2021/11/18 04:09:09;;;;;;;39.28;18.30;;;7.70;99.90;;;;;;2072120;28;20037;-73
2021/11/18 04:10:14;;;;;;;36.35;17.60;;;7.70;99.90;;;;;;2071889;28;20120;-73
2021/11/18 04:11:15;;;;;;;32.10;16.70;;;7.70;99.90;;;;;;2070628;28;20112;-73
2021/11/18 04:12:16;;;;;;;42.67;18.55;;;7.70;99.90;;;;;;2070799;28;20033;-73
2021/11/18 04:13:17;;;;;;;34.55;18.23;;;7.70;99.90;;;;;;2072442;28;20486;-73
2021/11/18 04:14:19;;;;;;;35.42;18.25;;;7.70;99.90;;;;;;2071565;28;20060;-73
2021/11/18 04:15:21;;;;;;;43.50;17.95;;;7.70;99.90;;;;;;2067916;28;20128;-73
2021/11/18 04:16:23;;;;;;;39.95;18.20;;;7.70;99.90;;;;;;2063640;28;20101;-73
2021/11/18 04:17:23;;;;;;;36.72;18.92;;;7.70;99.90;;;;;;2071674;28;20498;-73
2021/11/18 04:18:24;;;;;;;44.00;19.20;;;7.70;99.90;;;;;;2070918;28;20394;-73
2021/11/18 04:19:25;;;;;;;36.70;19.40;;;7.70;99.90;;;;;;2071452;28;20544;-73
2021/11/18 04:20:27;;;;;;;39.63;18.52;;;7.70;99.90;;;;;;2071848;28;20022;-73
2021/11/18 04:21:31;;;;;;;39.95;18.67;;;7.70;99.90;;;;;;2072254;28;20033;-73
2021/11/18 04:22:32;;;;;;;38.55;18.83;;;7.70;99.90;;;;;;2072214;28;20022;-73
2021/11/18 04:23:32;;;;;;;39.53;20.38;;;7.70;99.90;;;;;;2069730;28;20485;-73
2021/11/18 04:24:34;;;;;;;39.05;18.60;;;7.70;99.90;;;;;;2066519;28;20022;-73
2021/11/18 04:25:36;;;;;;;34.47;18.25;;;7.70;99.90;;;;;;2071584;28;20025;-73
2021/11/18 04:26:38;;;;;;;34.78;17.20;;;7.70;99.90;;;;;;2069458;28;20022;-73
2021/11/18 04:27:41;;;;;;;35.58;17.30;;;7.70;99.90;;;;;;2072131;28;20397;-73
2021/11/18 04:28:42;;;;;;;33.15;17.77;;;7.70;99.90;;;;;;2071065;28;20034;-73
2021/11/18 04:29:43;;;;;;;41.83;18.23;;;7.70;99.90;;;;;;2070994;28;20076;-73
2021/11/18 04:30:52;;;;;;;35.97;17.67;;;7.70;99.90;;;;;;2071309;28;20026;-73
2021/11/18 04:31:53;;;;;;;36.38;17.60;;;7.70;99.90;;;;;;2070338;28;20103;-73
2021/11/18 04:32:53;;;;;;;50.03;19.95;;;7.70;99.90;;;;;;2071870;28;20030;-73
2021/11/18 04:33:54;;;;;;;42.55;18.35;;;7.70;99.90;;;;;;2067692;28;20506;-73
2021/11/18 04:34:55;;;;;;;42.63;18.20;;;7.70;99.90;;;;;;2068013;28;20104;-73
2021/11/18 04:35:56;;;;;;;35.60;17.80;;;7.70;99.90;;;;;;2071670;28;20076;-73
2021/11/18 04:36:57;;;;;;;38.95;18.10;;;7.70;99.90;;;;;;2071951;28;20022;-73
2021/11/18 04:37:57;;;;;;;42.78;19.17;;;7.70;99.90;;;;;;2071579;28;20030;-73
2021/11/18 04:38:58;;;;;;;45.45;19.63;;;7.70;99.90;;;;;;2070801;28;20059;-73
2021/11/18 04:39:59;;;;;;;44.38;19.38;;;7.70;99.90;;;;;;2071692;28;20474;-73
2021/11/18 04:41:00;;;;;;;37.53;17.48;;;7.70;99.90;;;;;;2066894;28;20032;-73
2021/11/18 04:42:02;;;;;;;43.22;18.55;;;7.70;99.90;;;;;;2072052;28;20374;-73
2021/11/18 04:43:05;;;;;;;39.83;18.67;;;7.70;99.90;;;;;;2071761;28;20022;-73
2021/11/18 04:44:06;;;;;;;43.72;18.67;;;7.70;99.90;;;;;;2069819;28;20030;-73
2021/11/18 04:45:08;;;;;;;44.80;18.30;;;7.70;99.90;;;;;;2071162;28;20057;-73
2021/11/18 04:46:09;;;;;;;42.50;18.88;;;7.80;99.90;;;;;;2071029;28;20057;-73
2021/11/18 04:47:12;;;;;;;49.08;19.00;;;7.70;99.90;;;;;;2071290;28;20525;-73
2021/11/18 04:48:13;;;;;;;42.05;20.00;;;7.80;99.90;;;;;;2069754;28;20068;-73
2021/11/18 04:49:15;;;;;;;43.85;19.92;;;7.80;99.90;;;;;;2071254;28;20042;-73
2021/11/18 04:50:16;;;;;;;49.55;19.27;;;7.80;99.90;;;;;;2071746;28;20504;-73
2021/11/18 04:51:19;;;;;;;48.67;20.10;;;7.80;99.90;;;;;;2071778;28;20038;-73
2021/11/18 04:52:20;;;;;;;49.63;20.13;;;7.80;99.90;;;;;;2072350;28;20021;-74
2021/11/18 04:53:26;;;;;;;51.85;19.38;;;7.80;99.90;;;;;;2071727;28;20030;-73
2021/11/18 04:54:26;;;;;;;43.20;18.70;;;7.80;99.90;;;;;;2071840;28;20384;-73
2021/11/18 04:55:28;;;;;;;41.30;19.80;;;7.80;99.90;;;;;;2071244;28;20087;-73
2021/11/18 04:56:29;;;;;;;47.00;19.80;;;7.80;99.90;;;;;;2071846;28;20095;-73
2021/11/18 04:57:30;;;;;;;40.25;18.73;;;7.80;99.90;;;;;;2071525;28;20430;-73
2021/11/18 04:58:30;;;;;;;38.72;18.88;;;7.80;99.90;;;;;;2070509;28;20056;-73
2021/11/18 04:59:32;;;;;;;44.13;19.95;;;7.80;99.90;;;;;;2070186;28;20112;-73
2021/11/18 05:00:45;;;;;;;42.80;19.70;;;7.80;99.90;;;;;;2071853;28;20018;-73
2021/11/18 05:01:45;;;;;;;51.00;20.02;;;7.80;99.90;;;;;;2071981;28;20144;-73
2021/11/18 05:02:47;;;;;;;46.72;19.65;;;7.80;99.90;;;;;;2071704;28;20021;-73
2021/11/18 05:03:48;;;;;;;49.10;20.52;;;7.80;99.90;;;;;;2071032;28;20025;-74
2021/11/18 05:04:49;;;;;;;49.85;21.00;;;7.80;99.90;;;;;;2071928;28;20022;-73
2021/11/18 05:05:51;;;;;;;47.67;21.30;;;7.80;99.90;;;;;;2071444;28;20021;-73
2021/11/18 05:06:51;;;;;;;53.72;20.92;;;7.80;99.90;;;;;;2071890;28;20026;-73
2021/11/18 05:07:53;;;;;;;41.42;20.40;;;7.80;99.90;;;;;;2071517;28;20040;-73
2021/11/18 05:08:53;;;;;;;49.97;21.38;;;7.80;99.90;;;;;;2067652;28;20026;-73
2021/11/18 05:09:54;;;;;;;49.83;20.70;;;7.80;99.90;;;;;;2071003;28;20080;-73
2021/11/18 05:10:55;;;;;;;49.53;21.70;;;7.80;99.90;;;;;;2065956;28;20041;-73
2021/11/18 05:11:55;;;;;;;50.53;22.38;;;7.90;99.90;;;;;;2070499;28;20512;-73
2021/11/18 05:12:57;;;;;;;45.80;21.52;;;7.80;99.90;;;;;;2071259;28;20124;-73
2021/11/18 05:13:58;;;;;;;51.25;22.05;;;7.90;99.90;;;;;;2070133;28;20052;-73
2021/11/18 05:14:58;;;;;;;56.03;22.48;;;7.90;99.90;;;;;;2068195;28;20096;-73
2021/11/18 05:16:02;;;;;;;56.03;23.92;;;7.90;99.90;;;;;;2066075;28;20116;-73
2021/11/18 05:17:03;;;;;;;54.45;22.45;;;7.90;99.90;;;;;;2065061;28;20062;-73
2021/11/18 05:18:05;;;;;;;51.63;21.30;;;7.90;99.90;;;;;;2070944;28;20030;-73
2021/11/18 05:19:05;;;;;;;52.00;21.50;;;7.90;99.90;;;;;;2069842;28;20057;-73